Fernando Pessoa — CSKQ — position and weather

sailwx.info

Track history (hours):
 
Tides and Currents Weather Stations Pressure Air Temp Water Temp Dewpoint Dewpoint Depression Visibility Wind Speed Wind Dir Waves Ship Positions

Fernando Pessoa

Last reported at 2014-Sep-19 15:34 UTC. Time now 2014-Sep-19 15:49 UTC.
Position N 38°39' W 009°05'.

Length 49 m.

MMSI: 263701470.

Date/timePositionNaut miles runAvg speedWind from/ knotsBaromVisibWave heightAir tempDewpointWater temp
2014-Sep-19 15:34N 38°39' W 009°05'0 0.0
2014-Sep-19 14:34N 38°39' W 009°05'0 0.0
2014-Sep-19 12:28N 38°39' W 009°05'1 1.4
2014-Sep-19 11:34N 38°40' W 009°06'0 0.1
2014-Sep-19 10:34N 38°40' W 009°06'1 1.4
2014-Sep-19 09:33N 38°39' W 009°05'0 0.0
2014-Sep-19 08:33N 38°39' W 009°05'0 0.0
2014-Sep-19 07:34N 38°39' W 009°05'1 1.0
2014-Sep-19 06:34N 38°39' W 009°06'1 1.0
2014-Sep-19 05:34N 38°39' W 009°05'4 0.4
2014-Sep-18 19:33N 38°42' W 009°08'0 0.5
2014-Sep-18 18:33N 38°42' W 009°08'1 0.6
2014-Sep-18 17:34N 38°42' W 009°08'3 3.0
2014-Sep-18 16:34N 38°39' W 009°06'3 3.5
2014-Sep-18 15:33N 38°42' W 009°08'2 1.6
2014-Sep-18 14:33N 38°41' W 009°08'0 0.4
2014-Sep-18 13:33N 38°41' W 009°08'0 0.2
2014-Sep-18 12:34N 38°41' W 009°08'0 0.2
2014-Sep-18 11:33N 38°41' W 009°08'0 0.4
2014-Sep-18 10:34N 38°41' W 009°08'3 2.7
2014-Sep-18 09:33N 38°39' W 009°05'2 1.6
2014-Sep-18 08:34N 38°40' W 009°07'3 2.7
2014-Sep-18 07:33N 38°42' W 009°08'1 0.7
2014-Sep-18 06:34N 38°42' W 009°08'3 3.3
2014-Sep-18 05:33N 38°39' W 009°05'0 0.0
2014-Sep-17 20:04N 38°39' W 009°05'4 7.5
2014-Sep-17 19:34N 38°42' W 009°08'0 0.4
2014-Sep-17 18:33N 38°42' W 009°08'1 1.0
2014-Sep-17 17:33N 38°41' W 009°08'3 3.0
2014-Sep-17 16:34N 38°39' W 009°05'4 3.7
2014-Sep-17 15:33N 38°42' W 009°08'1 1.2
2014-Sep-17 14:33N 38°41' W 009°08'0 0.0
2014-Sep-17 13:33N 38°41' W 009°08'0 0.3
2014-Sep-17 12:34N 38°41' W 009°08'0 0.0
2014-Sep-17 11:34N 38°41' W 009°08'0 0.2
2014-Sep-17 10:33N 38°41' W 009°07'3 2.7
2014-Sep-17 09:33N 38°39' W 009°05'1 1.5
2014-Sep-17 08:33N 38°40' W 009°06'3 2.9
2014-Sep-17 07:34N 38°42' W 009°08'1 1.3
2014-Sep-17 06:34N 38°41' W 009°08'3 2.9
2014-Sep-17 05:33N 38°39' W 009°05'0 0.0
2014-Sep-16 08:34N 38°39' W 009°05'0 0.1
2014-Sep-16 07:33N 38°39' W 009°05'0 0.2
2014-Sep-16 06:33N 38°39' W 009°05'0 0.0
2014-Sep-16 05:33N 38°39' W 009°05'0 0.0
2014-Sep-15 20:33N 38°39' W 009°05'0 0.0
2014-Sep-15 19:33N 38°39' W 009°05'4 3.7
2014-Sep-15 18:33N 38°42' W 009°08'2 1.8
2014-Sep-15 17:34N 38°40' W 009°07'2 2.3
2014-Sep-15 16:33N 38°39' W 009°05'0 0.0
2014-Sep-15 15:33N 38°39' W 009°05'0 0.0
2014-Sep-15 14:33N 38°39' W 009°05'0 0.0
2014-Sep-15 11:07N 38°39' W 009°05'0 0.0
2014-Sep-15 10:33N 38°39' W 009°05'1 1.4
2014-Sep-15 09:34N 38°40' W 009°06'0 0.0
2014-Sep-15 08:33N 38°40' W 009°06'2 2.3
2014-Sep-15 07:34N 38°42' W 009°08'1 0.7
2014-Sep-15 06:33N 38°42' W 009°08'  
2014-Sep-12 20:24N 38°39' W 009°05'4 4.2
2014-Sep-12 19:33N 38°42' W 009°08'3 3.1
2014-Sep-12 18:34N 38°39' W 009°06'3 3.3
2014-Sep-12 17:34N 38°42' W 009°08'0 0.5
2014-Sep-12 16:34N 38°42' W 009°08'1 1.1
2014-Sep-12 15:33N 38°41' W 009°08'3 3.2
2014-Sep-12 14:33N 38°39' W 009°05'2 1.9
2014-Sep-12 13:33N 38°40' W 009°07'0 0.5
2014-Sep-12 12:34N 38°40' W 009°06'1 1.3
2014-Sep-12 11:33N 38°39' W 009°05'0 0.0
2014-Sep-12 10:34N 38°39' W 009°05'3 2.8
2014-Sep-12 09:34N 38°41' W 009°08'3 2.9
2014-Sep-12 08:34N 38°39' W 009°05'1 1.1
2014-Sep-12 07:34N 38°40' W 009°06'3 2.7
2014-Sep-12 06:33N 38°42' W 009°08'1 0.5
2014-Sep-12 05:34N 38°42' W 009°08'0 0.0
2014-Sep-12 04:33N 38°42' W 009°08'4 4.2
2014-Sep-12 03:34N 38°39' W 009°05'0 0.0
2014-Sep-12 02:34N 38°39' W 009°05'0 0.0
2014-Sep-12 01:34N 38°39' W 009°05'0 0.5
2014-Sep-12 00:34N 38°39' W 009°05'0 0.1
2014-Sep-11 23:34N 38°39' W 009°05'0 0.2
2014-Sep-11 22:33N 38°39' W 009°05'1 0.7
2014-Sep-11 21:33N 38°40' W 009°06'0 0.1
2014-Sep-11 20:33N 38°40' W 009°06'1 1.1
2014-Sep-11 19:33N 38°39' W 009°05'0 0.0
2014-Sep-11 18:33N 38°39' W 009°05'1 1.3
2014-Sep-11 17:34N 38°40' W 009°06'3 2.9
2014-Sep-11 16:34N 38°42' W 009°08'4 4.0
2014-Sep-11 15:33N 38°39' W 009°05'0 0.0
2014-Sep-11 14:33N 38°39' W 009°05'0 0.0
2014-Sep-11 13:33N 38°39' W 009°05'0 0.0
2014-Sep-11 12:33N 38°39' W 009°05'0 0.0
2014-Sep-11 11:33N 38°39' W 009°05'0 0.0
2014-Sep-11 10:33N 38°39' W 009°05'0 0.0
2014-Sep-11 09:33N 38°39' W 009°05'0 0.1
2014-Sep-11 08:33N 38°39' W 009°05'0 0.4
2014-Sep-11 07:33N 38°39' W 009°05'0 0.5
2014-Sep-11 06:33N 38°39' W 009°05'0 0.0
2014-Sep-11 05:34N 38°39' W 009°05'0 0.0
2014-Sep-10 20:34N 38°39' W 009°05'0 0.0
2014-Sep-10 19:34N 38°39' W 009°05'3 3.4
2014-Sep-10 18:34N 38°41' W 009°08'2 1.5
2014-Sep-10 17:34N 38°40' W 009°07'2 2.1
2014-Sep-10 16:34N 38°39' W 009°05'0 0.0
2014-Sep-10 15:34N 38°39' W 009°05'0 0.1
2014-Sep-10 14:34N 38°39' W 009°05'0 0.0
2014-Sep-10 09:33N 38°39' W 009°05'4 4.0
2014-Sep-10 08:33N 38°42' W 009°08'0 0.1
2014-Sep-10 07:34N 38°42' W 009°08'3 2.8
2014-Sep-10 06:34N 38°40' W 009°06'1 0.1
2014-Sep-09 20:04N 38°39' W 009°05'0 0.1
2014-Sep-09 19:34N 38°39' W 009°05'0 0.1
2014-Sep-09 18:33N 38°39' W 009°05'1 1.1
2014-Sep-09 17:34N 38°40' W 009°06'3 3.0
2014-Sep-09 16:34N 38°42' W 009°08'4 3.8
2014-Sep-09 15:34N 38°39' W 009°05'  
Track history (hours):
 
Tides and Currents Weather Stations Pressure Air Temp Water Temp Dewpoint Dewpoint Depression Visibility Wind Speed Wind Dir Waves Ship Positions

Fernando Pessoa

Last reported at 2014-Sep-19 15:34 UTC. Time now 2014-Sep-19 15:49 UTC.
Position N 38°39' W 009°05'.

Length 49 m.

MMSI: 263701470.

Date/timePositionNaut miles runAvg speedWind from/ knotsBaromVisibWave heightAir tempDewpointWater temp
2014-Sep-19 15:34N 38°39' W 009°05'0 0.0
2014-Sep-19 14:34N 38°39' W 009°05'0 0.0
2014-Sep-19 12:28N 38°39' W 009°05'1 1.4
2014-Sep-19 11:34N 38°40' W 009°06'0 0.1
2014-Sep-19 10:34N 38°40' W 009°06'1 1.4
2014-Sep-19 09:33N 38°39' W 009°05'0 0.0
2014-Sep-19 08:33N 38°39' W 009°05'0 0.0
2014-Sep-19 07:34N 38°39' W 009°05'1 1.0
2014-Sep-19 06:34N 38°39' W 009°06'1 1.0
2014-Sep-19 05:34N 38°39' W 009°05'4 0.4
2014-Sep-18 19:33N 38°42' W 009°08'0 0.5
2014-Sep-18 18:33N 38°42' W 009°08'1 0.6
2014-Sep-18 17:34N 38°42' W 009°08'3 3.0
2014-Sep-18 16:34N 38°39' W 009°06'3 3.5
2014-Sep-18 15:33N 38°42' W 009°08'2 1.6
2014-Sep-18 14:33N 38°41' W 009°08'0 0.4
2014-Sep-18 13:33N 38°41' W 009°08'0 0.2
2014-Sep-18 12:34N 38°41' W 009°08'0 0.2
2014-Sep-18 11:33N 38°41' W 009°08'0 0.4
2014-Sep-18 10:34N 38°41' W 009°08'3 2.7
2014-Sep-18 09:33N 38°39' W 009°05'2 1.6
2014-Sep-18 08:34N 38°40' W 009°07'3 2.7
2014-Sep-18 07:33N 38°42' W 009°08'1 0.7
2014-Sep-18 06:34N 38°42' W 009°08'3 3.3
2014-Sep-18 05:33N 38°39' W 009°05'0 0.0
2014-Sep-17 20:04N 38°39' W 009°05'4 7.5
2014-Sep-17 19:34N 38°42' W 009°08'0 0.4
2014-Sep-17 18:33N 38°42' W 009°08'1 1.0
2014-Sep-17 17:33N 38°41' W 009°08'3 3.0
2014-Sep-17 16:34N 38°39' W 009°05'4 3.7
2014-Sep-17 15:33N 38°42' W 009°08'1 1.2
2014-Sep-17 14:33N 38°41' W 009°08'0 0.0
2014-Sep-17 13:33N 38°41' W 009°08'0 0.3
2014-Sep-17 12:34N 38°41' W 009°08'0 0.0
2014-Sep-17 11:34N 38°41' W 009°08'0 0.2
2014-Sep-17 10:33N 38°41' W 009°07'3 2.7
2014-Sep-17 09:33N 38°39' W 009°05'1 1.5
2014-Sep-17 08:33N 38°40' W 009°06'3 2.9
2014-Sep-17 07:34N 38°42' W 009°08'1 1.3
2014-Sep-17 06:34N 38°41' W 009°08'3 2.9
2014-Sep-17 05:33N 38°39' W 009°05'0 0.0
2014-Sep-16 08:34N 38°39' W 009°05'0 0.1
2014-Sep-16 07:33N 38°39' W 009°05'0 0.2
2014-Sep-16 06:33N 38°39' W 009°05'0 0.0
2014-Sep-16 05:33N 38°39' W 009°05'0 0.0
2014-Sep-15 20:33N 38°39' W 009°05'0 0.0
2014-Sep-15 19:33N 38°39' W 009°05'4 3.7
2014-Sep-15 18:33N 38°42' W 009°08'2 1.8
2014-Sep-15 17:34N 38°40' W 009°07'2 2.3
2014-Sep-15 16:33N 38°39' W 009°05'0 0.0
2014-Sep-15 15:33N 38°39' W 009°05'0 0.0
2014-Sep-15 14:33N 38°39' W 009°05'0 0.0
2014-Sep-15 11:07N 38°39' W 009°05'0 0.0
2014-Sep-15 10:33N 38°39' W 009°05'1 1.4
2014-Sep-15 09:34N 38°40' W 009°06'0 0.0
2014-Sep-15 08:33N 38°40' W 009°06'2 2.3
2014-Sep-15 07:34N 38°42' W 009°08'1 0.7
2014-Sep-15 06:33N 38°42' W 009°08'  
2014-Sep-12 20:24N 38°39' W 009°05'4 4.2
2014-Sep-12 19:33N 38°42' W 009°08'3 3.1
2014-Sep-12 18:34N 38°39' W 009°06'3 3.3
2014-Sep-12 17:34N 38°42' W 009°08'0 0.5
2014-Sep-12 16:34N 38°42' W 009°08'1 1.1
2014-Sep-12 15:33N 38°41' W 009°08'3 3.2
2014-Sep-12 14:33N 38°39' W 009°05'2 1.9
2014-Sep-12 13:33N 38°40' W 009°07'0 0.5
2014-Sep-12 12:34N 38°40' W 009°06'1 1.3
2014-Sep-12 11:33N 38°39' W 009°05'0 0.0
2014-Sep-12 10:34N 38°39' W 009°05'3 2.8
2014-Sep-12 09:34N 38°41' W 009°08'3 2.9
2014-Sep-12 08:34N 38°39' W 009°05'1 1.1
2014-Sep-12 07:34N 38°40' W 009°06'3 2.7
2014-Sep-12 06:33N 38°42' W 009°08'1 0.5
2014-Sep-12 05:34N 38°42' W 009°08'0 0.0
2014-Sep-12 04:33N 38°42' W 009°08'4 4.2
2014-Sep-12 03:34N 38°39' W 009°05'0 0.0
2014-Sep-12 02:34N 38°39' W 009°05'0 0.0
2014-Sep-12 01:34N 38°39' W 009°05'0 0.5
2014-Sep-12 00:34N 38°39' W 009°05'0 0.1
2014-Sep-11 23:34N 38°39' W 009°05'0 0.2
2014-Sep-11 22:33N 38°39' W 009°05'1 0.7
2014-Sep-11 21:33N 38°40' W 009°06'0 0.1
2014-Sep-11 20:33N 38°40' W 009°06'1 1.1
2014-Sep-11 19:33N 38°39' W 009°05'0 0.0
2014-Sep-11 18:33N 38°39' W 009°05'1 1.3
2014-Sep-11 17:34N 38°40' W 009°06'3 2.9
2014-Sep-11 16:34N 38°42' W 009°08'4 4.0
2014-Sep-11 15:33N 38°39' W 009°05'0 0.0
2014-Sep-11 14:33N 38°39' W 009°05'0 0.0
2014-Sep-11 13:33N 38°39' W 009°05'0 0.0
2014-Sep-11 12:33N 38°39' W 009°05'0 0.0
2014-Sep-11 11:33N 38°39' W 009°05'0 0.0
2014-Sep-11 10:33N 38°39' W 009°05'0 0.0
2014-Sep-11 09:33N 38°39' W 009°05'0 0.1
2014-Sep-11 08:33N 38°39' W 009°05'0 0.4
2014-Sep-11 07:33N 38°39' W 009°05'0 0.5
2014-Sep-11 06:33N 38°39' W 009°05'0 0.0
2014-Sep-11 05:34N 38°39' W 009°05'0 0.0
2014-Sep-10 20:34N 38°39' W 009°05'0 0.0
2014-Sep-10 19:34N 38°39' W 009°05'3 3.4
2014-Sep-10 18:34N 38°41' W 009°08'2 1.5
2014-Sep-10 17:34N 38°40' W 009°07'2 2.1
2014-Sep-10 16:34N 38°39' W 009°05'0 0.0
2014-Sep-10 15:34N 38°39' W 009°05'0 0.1
2014-Sep-10 14:34N 38°39' W 009°05'0 0.0
2014-Sep-10 09:33N 38°39' W 009°05'4 4.0
2014-Sep-10 08:33N 38°42' W 009°08'0 0.1
2014-Sep-10 07:34N 38°42' W 009°08'3 2.8
2014-Sep-10 06:34N 38°40' W 009°06'1 0.1
2014-Sep-09 20:04N 38°39' W 009°05'0 0.1
2014-Sep-09 19:34N 38°39' W 009°05'0 0.1
2014-Sep-09 18:33N 38°39' W 009°05'1 1.1
2014-Sep-09 17:34N 38°40' W 009°06'3 3.0
2014-Sep-09 16:34N 38°42' W 009°08'4 3.8
2014-Sep-09 15:34N 38°39' W 009°05'  

Dump ship's entire track history